createdAt,value
2017-09-06T00:00:59.776Z,9.50
2017-09-06T00:03:26.421Z,9.90
2017-09-06T00:05:53.097Z,9.33
2017-09-06T00:08:19.770Z,9.27
2017-09-06T00:10:46.409Z,8.80
2017-09-06T00:13:13.052Z,9.33
2017-09-06T00:15:39.748Z,11.57
2017-09-06T00:18:06.396Z,9.70
2017-09-06T00:20:33.071Z,11.50
2017-09-06T00:22:59.728Z,9.73
2017-09-06T00:25:26.368Z,8.80
2017-09-06T00:27:53.043Z,10.77
2017-09-06T00:30:19.692Z,9.93
2017-09-06T00:32:46.353Z,10.50
2017-09-06T00:35:13.252Z,10.83
2017-09-06T00:37:39.900Z,10.40
2017-09-06T00:40:06.544Z,9.93
2017-09-06T00:42:33.215Z,10.83
2017-09-06T00:45:00.104Z,9.50
2017-09-06T00:47:26.763Z,11.63
2017-09-06T00:49:53.412Z,9.23
2017-09-06T00:52:20.088Z,9.87
2017-09-06T00:54:46.760Z,12.27
2017-09-06T00:57:13.428Z,12.73
2017-09-06T00:59:40.123Z,12.10
2017-09-06T01:02:06.787Z,11.97
2017-09-06T01:04:33.432Z,11.30
2017-09-06T01:07:00.101Z,11.63
2017-09-06T01:09:26.741Z,13.80
2017-09-06T01:11:53.429Z,11.47
2017-09-06T01:14:20.097Z,13.53
2017-09-06T01:16:46.754Z,11.00
2017-09-06T01:19:13.416Z,11.00
2017-09-06T01:21:40.067Z,12.30
2017-09-06T01:24:06.716Z,10.77
2017-09-06T01:26:33.380Z,9.60
2017-09-06T01:29:00.044Z,10.37
2017-09-06T01:31:26.703Z,11.67
2017-09-06T01:33:53.380Z,11.07
2017-09-06T01:36:20.060Z,11.60
2017-09-06T01:38:46.717Z,10.33
2017-09-06T01:41:13.411Z,11.10
2017-09-06T01:43:40.078Z,10.67
2017-09-06T01:46:06.727Z,11.37
2017-09-06T01:48:33.413Z,11.87
2017-09-06T01:51:00.096Z,11.53
2017-09-06T01:53:26.779Z,10.20
2017-09-06T01:55:53.425Z,12.47
2017-09-06T01:58:20.071Z,11.50
2017-09-06T02:00:46.760Z,13.20
2017-09-06T02:03:13.428Z,12.10
2017-09-06T02:05:40.493Z,12.40
2017-09-06T02:08:07.136Z,13.40
2017-09-06T02:10:33.794Z,14.17
2017-09-06T02:13:00.712Z,11.73
2017-09-06T02:15:27.359Z,13.40
2017-09-06T02:17:54.005Z,12.77
2017-09-06T02:20:20.669Z,13.40
2017-09-06T02:22:47.349Z,12.60
2017-09-06T02:25:14.004Z,13.03
2017-09-06T02:27:40.667Z,13.10
2017-09-06T02:30:07.320Z,13.67
2017-09-06T02:32:33.982Z,11.27
2017-09-06T02:35:00.653Z,10.80
2017-09-06T02:37:27.338Z,12.23
2017-09-06T02:39:53.984Z,13.30
2017-09-06T02:42:20.659Z,10.53
2017-09-06T02:44:47.308Z,10.50
2017-09-06T02:47:13.983Z,10.97
2017-09-06T02:49:40.652Z,11.83
2017-09-06T02:52:07.300Z,13.67
2017-09-06T02:54:33.971Z,12.23
2017-09-06T02:57:00.623Z,12.70
2017-09-06T02:59:27.316Z,12.67
2017-09-06T03:01:53.991Z,11.43
2017-09-06T03:04:20.648Z,10.50
2017-09-06T03:06:47.329Z,10.80
2017-09-06T03:09:13.978Z,13.10
2017-09-06T03:11:40.628Z,10.07
2017-09-06T03:14:07.317Z,11.87
2017-09-06T03:16:33.973Z,12.27
2017-09-06T03:19:00.619Z,12.30
2017-09-06T03:21:27.304Z,11.30
2017-09-06T03:23:53.959Z,11.30
2017-09-06T03:26:20.632Z,12.50
2017-09-06T03:28:47.276Z,12.40
2017-09-06T03:31:13.944Z,16.00
2017-09-06T03:33:40.592Z,14.40
2017-09-06T03:36:07.236Z,13.97
2017-09-06T03:38:33.912Z,11.87
2017-09-06T03:41:00.564Z,10.03
2017-09-06T03:43:27.217Z,11.70
2017-09-06T03:45:53.893Z,11.37
2017-09-06T03:48:20.535Z,12.77
2017-09-06T03:50:47.315Z,9.80
2017-09-06T03:53:13.964Z,9.67
2017-09-06T03:55:40.622Z,9.17
2017-09-06T03:58:07.284Z,8.50
2017-09-06T04:00:33.920Z,8.80
2017-09-06T04:03:00.601Z,9.53
2017-09-06T04:05:27.240Z,9.83
2017-09-06T04:07:53.887Z,13.40
2017-09-06T04:10:20.559Z,9.20
2017-09-06T04:12:47.232Z,9.77
2017-09-06T04:15:13.885Z,9.50
2017-09-06T04:17:40.537Z,10.00
2017-09-06T04:20:07.204Z,9.07
2017-09-06T04:22:33.849Z,11.50
2017-09-06T04:25:00.516Z,9.27
2017-09-06T04:27:27.174Z,10.27
2017-09-06T04:29:53.835Z,10.30
2017-09-06T04:32:20.508Z,9.80
2017-09-06T04:34:47.153Z,10.10
2017-09-06T04:37:13.805Z,9.57
2017-09-06T04:39:40.497Z,10.20
2017-09-06T04:42:07.153Z,10.70
2017-09-06T04:44:33.804Z,10.60
2017-09-06T04:47:00.488Z,9.67
2017-09-06T04:49:27.140Z,10.43
2017-09-06T04:51:53.806Z,9.70
2017-09-06T04:54:20.448Z,9.30
2017-09-06T04:56:47.114Z,10.23
2017-09-06T04:59:13.764Z,10.23
2017-09-06T05:01:40.412Z,11.00
2017-09-06T05:04:07.090Z,9.90
2017-09-06T05:06:33.728Z,8.80
2017-09-06T05:09:00.383Z,10.00
2017-09-06T05:11:27.077Z,10.87
2017-09-06T05:13:53.724Z,9.67
2017-09-06T05:16:20.368Z,10.17
2017-09-06T05:18:47.052Z,10.03
2017-09-06T05:21:13.704Z,10.00
2017-09-06T05:23:40.356Z,9.47
2017-09-06T05:26:07.021Z,9.93
2017-09-06T05:28:33.695Z,12.30
2017-09-06T05:31:00.342Z,10.20
2017-09-06T05:33:27.013Z,10.93
2017-09-06T05:35:53.686Z,11.50
2017-09-06T05:38:20.346Z,12.30
2017-09-06T05:40:46.992Z,11.17
2017-09-06T05:43:13.665Z,10.87
2017-09-06T05:45:40.315Z,12.40
2017-09-06T05:48:06.995Z,12.23
2017-09-06T05:50:33.643Z,11.07
2017-09-06T05:53:00.304Z,14.73
2017-09-06T05:55:26.948Z,24.60
2017-09-06T05:57:53.597Z,16.67
2017-09-06T06:00:20.273Z,14.00
2017-09-06T06:02:46.928Z,12.70
2017-09-06T06:05:13.599Z,12.90
2017-09-06T06:07:40.253Z,12.53
2017-09-06T06:10:06.908Z,13.77
2017-09-06T06:12:33.584Z,15.20
2017-09-06T06:15:00.234Z,14.10
2017-09-06T06:17:27.140Z,16.33
2017-09-06T06:19:53.788Z,22.53
2017-09-06T06:22:20.436Z,18.17
2017-09-06T06:24:47.109Z,16.03
2017-09-06T06:27:13.760Z,16.17
2017-09-06T06:29:40.420Z,17.77
2017-09-06T06:32:07.093Z,15.87
2017-09-06T06:34:33.785Z,15.50
2017-09-06T06:37:00.444Z,16.70
2017-09-06T06:39:27.092Z,16.00
2017-09-06T06:41:53.761Z,14.90
2017-09-06T06:44:20.410Z,15.10
2017-09-06T06:46:47.055Z,15.17
2017-09-06T06:49:13.727Z,14.03
2017-09-06T06:51:40.381Z,15.17
2017-09-06T06:54:07.051Z,14.77
2017-09-06T06:56:33.724Z,13.20
2017-09-06T06:59:00.400Z,15.17
2017-09-06T07:01:27.045Z,14.57
2017-09-06T07:03:53.712Z,13.40
2017-09-06T07:06:20.377Z,16.63
2017-09-06T07:08:47.024Z,18.10
2017-09-06T07:11:13.710Z,16.20
2017-09-06T07:13:40.387Z,15.60
2017-09-06T07:16:07.040Z,18.63
2017-09-06T07:18:33.684Z,15.90
2017-09-06T07:21:00.357Z,14.50
2017-09-06T07:23:27.016Z,15.10
2017-09-06T07:25:53.692Z,15.87
2017-09-06T07:28:20.342Z,15.93
2017-09-06T07:30:46.990Z,15.60
2017-09-06T07:33:13.661Z,15.70
2017-09-06T07:35:40.309Z,17.70
2017-09-06T07:38:06.964Z,12.90
2017-09-06T07:40:33.639Z,15.03
2017-09-06T07:43:00.282Z,13.17
2017-09-06T07:45:26.937Z,12.00
2017-09-06T07:47:53.616Z,13.47
2017-09-06T07:50:20.265Z,15.30
2017-09-06T07:52:46.936Z,11.50
2017-09-06T07:55:13.609Z,10.67
2017-09-06T07:57:40.282Z,10.83
2017-09-06T08:00:06.933Z,12.70
2017-09-06T08:02:33.604Z,10.37
2017-09-06T08:05:00.246Z,12.53
2017-09-06T08:07:26.894Z,12.20
2017-09-06T08:09:53.568Z,11.60
2017-09-06T08:12:20.248Z,11.50
2017-09-06T08:14:46.919Z,10.77
2017-09-06T08:17:13.568Z,10.50
2017-09-06T08:19:40.232Z,10.10
2017-09-06T08:22:06.884Z,10.17
2017-09-06T08:24:33.524Z,10.17
2017-09-06T08:27:00.196Z,11.60
2017-09-06T08:29:26.839Z,11.33
2017-09-06T08:31:53.489Z,17.37
2017-09-06T08:34:20.189Z,12.20
2017-09-06T08:36:46.839Z,10.43
2017-09-06T08:39:13.481Z,11.77
2017-09-06T08:41:40.152Z,10.13
2017-09-06T08:44:06.832Z,10.60
2017-09-06T08:46:33.473Z,9.80
2017-09-06T08:49:00.143Z,9.90
2017-09-06T08:51:26.792Z,10.60
2017-09-06T08:53:53.459Z,12.70
2017-09-06T08:56:20.099Z,11.10
2017-09-06T08:58:46.769Z,10.83
2017-09-06T09:01:13.440Z,11.77
2017-09-06T09:03:40.120Z,12.73
2017-09-06T09:06:06.810Z,11.40
2017-09-06T09:08:33.455Z,11.50
2017-09-06T09:11:00.103Z,11.27
2017-09-06T09:13:26.776Z,11.33
2017-09-06T09:15:53.421Z,11.37
2017-09-06T09:18:20.091Z,10.23
2017-09-06T09:20:46.742Z,10.80
2017-09-06T09:23:13.434Z,9.27
2017-09-06T09:25:40.088Z,10.83
2017-09-06T09:28:06.740Z,10.80
2017-09-06T09:30:33.620Z,7.70
2017-09-06T09:33:00.260Z,9.47
2017-09-06T09:35:26.929Z,8.20
2017-09-06T09:37:53.572Z,8.50
2017-09-06T09:40:20.212Z,7.83
2017-09-06T09:42:46.876Z,6.70
2017-09-06T09:45:13.516Z,7.90
2017-09-06T09:47:40.181Z,7.13
2017-09-06T09:50:06.823Z,9.13
2017-09-06T09:52:33.510Z,7.00
2017-09-06T09:55:00.188Z,7.53
2017-09-06T09:57:26.824Z,6.80
2017-09-06T09:59:53.469Z,8.70
2017-09-06T10:02:20.134Z,10.33
2017-09-06T10:04:46.773Z,7.63
2017-09-06T10:07:13.412Z,7.87
2017-09-06T10:09:40.080Z,7.77
2017-09-06T10:12:06.732Z,9.40
2017-09-06T10:14:33.392Z,8.70
2017-09-06T10:17:00.028Z,9.03
2017-09-06T10:19:26.692Z,9.57
2017-09-06T10:21:53.357Z,8.70
2017-09-06T10:24:20.002Z,8.17
2017-09-06T10:26:46.664Z,7.70
2017-09-06T10:29:13.301Z,8.43
2017-09-06T10:31:39.942Z,8.17
2017-09-06T10:34:06.620Z,6.90
2017-09-06T10:36:33.261Z,7.13
2017-09-06T10:38:59.915Z,7.80
2017-09-06T10:41:26.600Z,7.20
2017-09-06T10:43:53.261Z,7.33
2017-09-06T10:46:19.906Z,7.13
2017-09-06T10:48:46.714Z,7.97
2017-09-06T10:51:13.354Z,6.20
2017-09-06T10:53:39.997Z,6.70
2017-09-06T10:56:07.639Z,6.00
2017-09-06T10:58:34.321Z,8.00
2017-09-06T11:01:00.964Z,6.00
2017-09-06T11:03:27.601Z,7.00
2017-09-06T11:05:54.270Z,6.43
2017-09-06T11:08:20.938Z,5.73
2017-09-06T11:10:47.606Z,5.33
2017-09-06T11:13:14.272Z,5.80
2017-09-06T11:15:40.916Z,4.30
2017-09-06T11:18:07.572Z,5.30
2017-09-06T11:20:34.204Z,5.13
2017-09-06T11:23:00.881Z,4.70
2017-09-06T11:25:27.528Z,5.00
2017-09-06T11:27:54.163Z,4.87
2017-09-06T11:30:21.232Z,4.63
2017-09-06T11:32:47.893Z,6.47
2017-09-06T11:35:14.529Z,5.43
2017-09-06T11:37:41.197Z,5.60
2017-09-06T11:40:07.869Z,5.17
2017-09-06T11:42:34.509Z,5.83
2017-09-06T11:45:01.188Z,5.90
2017-09-06T11:47:27.821Z,8.07
2017-09-06T11:49:54.488Z,9.43
2017-09-06T11:52:21.124Z,8.13
2017-09-06T11:54:47.933Z,5.93
2017-09-06T11:57:14.573Z,8.40
2017-09-06T11:59:41.245Z,6.10
2017-09-06T12:02:07.880Z,4.63
2017-09-06T12:04:34.528Z,5.13
2017-09-06T12:07:01.188Z,5.50
2017-09-06T12:09:27.840Z,3.37
2017-09-06T12:11:54.505Z,4.80
2017-09-06T12:14:21.172Z,5.90
2017-09-06T12:16:47.840Z,5.53
2017-09-06T12:19:14.496Z,6.30
2017-09-06T12:21:41.160Z,5.77
2017-09-06T12:24:07.812Z,6.50
2017-09-06T12:26:34.480Z,5.73
2017-09-06T12:29:01.159Z,6.10
2017-09-06T12:31:27.797Z,5.37
2017-09-06T12:33:54.438Z,6.53
2017-09-06T12:36:21.104Z,6.13
2017-09-06T12:38:47.748Z,6.40
2017-09-06T12:41:14.407Z,5.50
2017-09-06T12:43:41.051Z,5.07
2017-09-06T12:46:07.720Z,5.37
2017-09-06T12:48:34.360Z,4.20
2017-09-06T12:51:01.019Z,3.40
2017-09-06T12:53:27.656Z,2.97
2017-09-06T12:55:54.313Z,3.70
2017-09-06T12:58:20.976Z,3.03
2017-09-06T13:00:47.617Z,2.50
2017-09-06T13:03:14.282Z,2.67
2017-09-06T13:05:40.952Z,3.50
2017-09-06T13:08:07.609Z,3.40
2017-09-06T13:10:34.248Z,2.70
2017-09-06T13:13:00.929Z,2.70
2017-09-06T13:15:27.570Z,2.63
2017-09-06T13:17:54.205Z,2.17
2017-09-06T13:20:20.864Z,2.67
2017-09-06T13:22:47.523Z,2.77
2017-09-06T13:25:14.160Z,2.20
2017-09-06T13:27:40.820Z,1.93
2017-09-06T13:30:07.456Z,2.43
2017-09-06T13:32:34.143Z,1.80
2017-09-06T13:35:00.795Z,2.07
2017-09-06T13:37:27.437Z,1.87
2017-09-06T13:39:54.100Z,2.40
2017-09-06T13:42:20.742Z,1.90
2017-09-06T13:44:47.392Z,1.23
2017-09-06T13:47:14.072Z,1.50
2017-09-06T13:49:40.727Z,1.50
2017-09-06T13:52:07.396Z,1.10
2017-09-06T13:54:34.044Z,1.50
2017-09-06T13:57:00.703Z,1.20
2017-09-06T14:05:07.864Z,1.53
2017-09-06T14:07:34.501Z,2.63
2017-09-06T14:10:01.140Z,1.27
2017-09-06T14:12:27.805Z,1.40
2017-09-06T14:14:54.464Z,1.17
2017-09-06T14:17:21.102Z,1.17
2017-09-06T14:19:47.760Z,1.30
2017-09-06T14:22:14.421Z,1.27
2017-09-06T14:24:41.063Z,1.60
2017-09-06T14:27:07.911Z,1.33
2017-09-06T14:29:34.571Z,1.70
2017-09-06T14:32:01.212Z,1.37
2017-09-06T14:34:27.873Z,1.80
2017-09-06T14:36:54.680Z,1.77
2017-09-06T14:39:21.317Z,1.77
2017-09-06T14:41:47.960Z,1.63
2017-09-06T14:44:14.905Z,1.33
2017-09-06T14:46:41.546Z,1.33
2017-09-06T14:49:08.200Z,1.30
2017-09-06T14:51:34.872Z,1.40
2017-09-06T14:54:01.517Z,1.67
2017-09-06T14:56:28.189Z,1.50
2017-09-06T14:58:54.852Z,1.30
2017-09-06T15:01:21.504Z,1.20
2017-09-06T15:03:48.147Z,1.43
2017-09-06T15:06:14.807Z,1.50
2017-09-06T15:08:41.472Z,1.30
2017-09-06T15:11:08.116Z,1.70
2017-09-06T15:13:34.760Z,1.57
2017-09-06T15:16:01.421Z,1.97
2017-09-06T15:18:28.072Z,1.30
2017-09-06T15:20:55.130Z,4.13
2017-09-06T15:23:21.778Z,2.03
2017-09-06T15:25:48.425Z,1.50
2017-09-06T15:28:15.088Z,2.00
2017-09-06T15:30:41.751Z,1.87
2017-09-06T15:33:08.383Z,2.90
2017-09-06T15:35:35.052Z,2.87
2017-09-06T15:38:01.717Z,2.00
2017-09-06T15:40:28.404Z,1.70
2017-09-06T15:42:55.048Z,3.03
2017-09-06T15:45:21.691Z,2.30
2017-09-06T15:47:48.355Z,2.80
2017-09-06T15:50:15.032Z,2.27
2017-09-06T15:52:41.696Z,2.90
2017-09-06T15:55:08.350Z,2.37
2017-09-06T15:57:34.992Z,2.47
2017-09-06T16:00:01.897Z,2.80
2017-09-06T16:02:28.537Z,4.43
2017-09-06T16:04:55.188Z,2.43
2017-09-06T16:07:21.860Z,3.50
2017-09-06T16:09:48.528Z,6.50
2017-09-06T16:12:15.167Z,3.20
2017-09-06T16:14:41.842Z,2.27
2017-09-06T16:17:08.486Z,2.17
2017-09-06T16:19:35.164Z,3.10
2017-09-06T16:22:01.804Z,2.70
2017-09-06T16:24:28.447Z,3.43
2017-09-06T16:26:55.125Z,2.97
2017-09-06T16:29:21.760Z,2.23
2017-09-06T16:31:48.431Z,2.50
2017-09-06T16:34:15.093Z,3.03
2017-09-06T16:36:41.748Z,2.80
2017-09-06T16:39:08.395Z,3.60
2017-09-06T16:41:35.060Z,2.73
2017-09-06T16:44:01.708Z,3.30
2017-09-06T16:46:28.368Z,2.40
2017-09-06T16:48:55.026Z,1.90
2017-09-06T16:51:21.967Z,2.47
2017-09-06T16:53:48.609Z,3.00
2017-09-06T16:56:15.258Z,2.30
2017-09-06T16:58:41.932Z,2.17
2017-09-06T17:01:08.607Z,1.77
2017-09-06T17:03:35.271Z,1.93
2017-09-06T17:06:01.932Z,1.80
2017-09-06T17:08:28.573Z,2.17
2017-09-06T17:10:55.212Z,2.40
2017-09-06T17:13:21.884Z,2.30
2017-09-06T17:15:48.552Z,2.20
2017-09-06T17:18:15.227Z,3.10
2017-09-06T17:20:41.868Z,2.20
2017-09-06T17:23:08.504Z,3.50
2017-09-06T17:25:35.183Z,2.60
2017-09-06T17:28:01.827Z,2.13
2017-09-06T17:30:28.469Z,2.13
2017-09-06T17:32:55.163Z,2.13
2017-09-06T17:35:21.796Z,2.23
2017-09-06T17:37:48.453Z,2.73
2017-09-06T17:40:15.094Z,3.00
2017-09-06T17:42:41.740Z,2.20
2017-09-06T17:45:08.560Z,3.10
2017-09-06T17:47:35.211Z,3.53
2017-09-06T17:50:01.858Z,3.93
2017-09-06T17:52:28.542Z,3.00
2017-09-06T17:54:55.177Z,2.20
2017-09-06T17:57:21.821Z,2.70
2017-09-06T17:59:48.476Z,1.90
2017-09-06T18:02:15.120Z,2.80
2017-09-06T18:04:41.797Z,2.43
2017-09-06T18:07:08.436Z,4.83
2017-09-06T18:09:35.109Z,2.90
2017-09-06T18:12:01.776Z,2.40
2017-09-06T18:14:28.423Z,3.60
2017-09-06T18:16:55.067Z,2.60
2017-09-06T18:19:21.724Z,2.33
2017-09-06T18:21:48.364Z,2.83
2017-09-06T18:24:15.035Z,3.33
2017-09-06T18:26:41.684Z,3.60
2017-09-06T18:29:08.515Z,3.17
2017-09-06T18:31:35.158Z,3.90
2017-09-06T18:34:01.804Z,3.90
2017-09-06T18:36:28.469Z,2.07
2017-09-06T18:38:55.120Z,2.03
2017-09-06T18:41:21.788Z,2.20
2017-09-06T18:43:48.769Z,2.07
2017-09-06T18:46:15.447Z,1.90
2017-09-06T18:48:42.093Z,2.13
2017-09-06T18:51:09.001Z,2.47
2017-09-06T18:53:35.711Z,2.00
2017-09-06T18:56:02.392Z,2.57
2017-09-06T18:58:29.032Z,2.43
2017-09-06T19:00:55.699Z,2.17
2017-09-06T19:03:22.369Z,2.27
2017-09-06T19:05:49.027Z,2.70
2017-09-06T19:08:15.736Z,2.50
2017-09-06T19:17:25.148Z,2.63
2017-09-06T19:19:51.826Z,2.20
2017-09-06T19:22:18.470Z,2.30
2017-09-06T19:24:45.193Z,2.03
2017-09-06T19:27:11.831Z,1.90
2017-09-06T19:29:38.692Z,1.90
2017-09-06T19:32:05.604Z,2.00
2017-09-06T19:34:32.245Z,2.40
2017-09-06T19:36:58.919Z,7.20
2017-09-06T19:39:25.570Z,5.70
2017-09-06T19:41:52.216Z,2.80
2017-09-06T19:44:19.378Z,2.10
2017-09-06T19:46:46.282Z,2.77
2017-09-06T19:49:12.941Z,2.47
2017-09-06T19:51:39.648Z,2.83
2017-09-06T19:54:06.327Z,2.40
2017-09-06T19:56:32.989Z,2.37
2017-09-06T19:59:00.124Z,2.53
2017-09-06T20:01:26.772Z,1.90
2017-09-06T20:03:53.416Z,3.33
2017-09-06T20:06:20.092Z,2.67
2017-09-06T20:08:46.749Z,2.13
2017-09-06T20:11:13.565Z,2.40
2017-09-06T20:13:40.225Z,2.50
2017-09-06T20:16:06.869Z,2.00
2017-09-06T20:18:33.544Z,2.83
2017-09-06T20:21:00.183Z,5.27
2017-09-06T20:23:27.120Z,3.40
2017-09-06T20:25:53.787Z,2.20
2017-09-06T20:28:20.429Z,2.80
2017-09-06T20:30:47.652Z,2.97
2017-09-06T20:33:14.303Z,2.70
2017-09-06T20:35:40.958Z,2.30
2017-09-06T20:38:07.638Z,2.37
2017-09-06T20:40:34.297Z,2.47
2017-09-06T20:43:00.995Z,2.47
2017-09-06T20:45:27.644Z,2.43
2017-09-06T20:47:54.284Z,2.70
2017-09-06T20:50:20.976Z,2.17
2017-09-06T20:52:47.625Z,3.23
2017-09-06T20:55:14.287Z,2.47
2017-09-06T20:57:40.929Z,2.30
2017-09-06T21:00:07.593Z,2.73
2017-09-06T21:02:34.235Z,1.90
2017-09-06T21:05:00.898Z,2.60
2017-09-06T21:07:27.536Z,1.93
2017-09-06T21:09:54.172Z,2.20
2017-09-06T21:12:20.972Z,2.60
2017-09-06T21:14:47.622Z,1.97
2017-09-06T21:17:14.268Z,1.83
2017-09-06T21:19:40.927Z,2.97
2017-09-06T21:22:07.593Z,2.40
2017-09-06T21:24:34.228Z,2.97
2017-09-06T21:27:00.863Z,2.47
2017-09-06T21:29:27.567Z,2.30
2017-09-06T21:31:54.204Z,6.57
2017-09-06T21:34:20.846Z,3.23
2017-09-06T21:36:47.519Z,2.40
2017-09-06T21:39:14.149Z,2.57
2017-09-06T21:41:40.783Z,2.20
2017-09-06T21:44:07.440Z,2.20
2017-09-06T21:46:34.176Z,3.10
2017-09-06T21:49:01.195Z,2.07
2017-09-06T21:51:27.832Z,3.07
2017-09-06T21:53:54.475Z,1.63
2017-09-06T21:56:21.140Z,2.60
2017-09-06T21:58:47.777Z,2.57
2017-09-06T22:01:14.416Z,2.37
2017-09-06T22:03:42.486Z,2.20
2017-09-06T22:06:09.124Z,2.67
2017-09-06T22:08:35.772Z,1.73
2017-09-06T22:11:02.448Z,1.70
2017-09-06T22:13:29.089Z,2.50
2017-09-06T22:15:55.732Z,1.80
2017-09-06T22:18:22.400Z,2.20
2017-09-06T22:20:49.042Z,1.93
2017-09-06T22:23:15.700Z,1.67
2017-09-06T22:25:42.337Z,1.50
2017-09-06T22:28:09.001Z,2.10
2017-09-06T22:30:35.647Z,2.00
2017-09-06T22:33:02.324Z,1.53
2017-09-06T22:35:28.970Z,1.60
2017-09-06T22:37:55.620Z,1.83
2017-09-06T22:40:22.505Z,2.00
2017-09-06T22:42:49.147Z,2.20
2017-09-06T22:45:15.785Z,1.90
2017-09-06T22:47:42.458Z,2.30
2017-09-06T22:50:09.096Z,1.83
2017-09-06T22:52:35.728Z,2.20
2017-09-06T22:55:02.396Z,2.77
2017-09-06T22:57:29.040Z,1.90
2017-09-06T22:59:56.037Z,1.90
2017-09-06T23:02:22.681Z,1.93
2017-09-06T23:04:49.320Z,1.93
2017-09-06T23:07:15.990Z,2.53
2017-09-06T23:09:42.637Z,2.13
2017-09-06T23:12:09.292Z,2.10
2017-09-06T23:14:35.934Z,2.10
2017-09-06T23:17:02.591Z,2.00
2017-09-06T23:19:29.268Z,1.60
2017-09-06T23:21:55.912Z,1.70
2017-09-06T23:24:22.573Z,2.27
2017-09-06T23:26:49.231Z,1.40
2017-09-06T23:29:15.880Z,2.10
2017-09-06T23:31:42.545Z,1.50
2017-09-06T23:34:09.183Z,2.10
2017-09-06T23:36:35.850Z,3.07
2017-09-06T23:39:02.491Z,2.17
2017-09-06T23:41:29.131Z,1.50
2017-09-06T23:43:55.788Z,2.00
2017-09-06T23:46:22.464Z,2.60
2017-09-06T23:48:49.128Z,2.20
2017-09-06T23:51:15.768Z,1.83
2017-09-06T23:53:42.438Z,2.10
2017-09-06T23:56:09.100Z,3.03
2017-09-06T23:58:35.735Z,2.53
